Time;durP1;ratioP1;P1;durP2;ratioP2;P2;SDS_P1;SDS_P2;PMS_P1;PMS_P2;Temp;Humidity;BMP_temperature;BMP_pressure;BME280_temperature;BME280_humidity;BME280_pressure;Samples;Min_cycle;Max_cycle;Signal;HPM_P1;HPM_P2
2023/12/28 00:09:18;;;;;;;5.20;3.05;;;;;;;15.02;58.69;97581.75;5037181;28;20040;-24
2023/12/28 00:25:11;;;;;;;3.63;2.55;;;;;;;15.01;58.70;97589.16;5031857;28;20055;-24
2023/12/28 00:41:03;;;;;;;4.85;3.05;;;;;;;15.12;58.45;97577.97;5036703;28;20032;-24
2023/12/28 00:54:23;;;;;;;5.20;2.60;;;;;;;15.15;58.19;97604.44;5039238;28;20116;-24
2023/12/28 01:10:16;;;;;;;4.32;2.55;;;;;;;14.98;58.71;97602.91;5036718;28;20028;-24
2023/12/28 01:26:14;;;;;;;4.13;2.08;;;;;;;14.81;58.67;97585.00;5030296;28;20099;-24
2023/12/28 01:42:06;;;;;;;3.40;1.60;;;;;;;15.20;56.30;97592.25;5035805;28;20091;-24
2023/12/28 01:55:09;;;;;;;3.03;1.50;;;;;;;14.97;56.56;97599.41;5051700;28;20106;-24
2023/12/28 02:11:01;;;;;;;3.08;1.90;;;;;;;14.94;56.80;97589.34;5050486;28;20036;-24
2023/12/28 02:26:53;;;;;;;3.17;1.30;;;;;;;15.02;56.21;97573.53;5027483;28;20107;-24
2023/12/28 02:42:46;;;;;;;2.83;1.30;;;;;;;15.04;55.44;97554.75;5033803;28;20077;-24
2023/12/28 02:55:47;;;;;;;3.45;1.25;;;;;;;14.97;55.35;97544.00;5034619;28;20035;-24
2023/12/28 03:11:40;;;;;;;1.80;1.08;;;;;;;14.99;55.23;97553.31;5034825;28;20040;-24
2023/12/28 03:27:33;;;;;;;2.45;1.02;;;;;;;15.01;55.24;97547.41;5027987;28;20056;-24
2023/12/28 03:56:54;;;;;;;3.40;1.30;;;;;;;14.98;55.08;97545.53;5038206;28;20497;-24
2023/12/28 04:12:46;;;;;;;2.58;1.30;;;;;;;15.18;54.77;97534.50;5038696;28;20111;-24
2023/12/28 04:28:39;;;;;;;2.80;1.17;;;;;;;15.10;54.86;97536.66;5030630;28;20068;-24
2023/12/28 04:42:02;;;;;;;12.30;5.95;;;;;;;15.18;54.51;97535.28;5037956;28;20084;-24
2023/12/28 04:57:55;;;;;;;14.35;11.30;;;;;;;15.00;55.02;97532.22;5036999;28;20506;-24
2023/12/28 05:13:48;;;;;;;4.32;2.30;;;;;;;15.09;54.18;97526.91;5051538;28;20128;-24
2023/12/28 05:43:33;;;;;;;2.38;1.10;;;;;;;15.04;54.41;97539.13;5036462;28;20039;-24
2023/12/28 05:59:26;;;;;;;3.28;1.70;;;;;;;15.10;54.41;97545.59;5035173;28;20091;-24
2023/12/28 06:28:45;;;;;;;4.45;1.70;;;;;;;15.03;54.95;97569.63;5028051;28;20056;-24
2023/12/28 06:44:37;;;;;;;5.20;2.95;;;;;;;14.98;54.85;97573.63;5041394;28;20037;-24
2023/12/28 07:00:30;;;;;;;5.68;3.63;;;;;;;14.93;55.15;97578.84;5034855;28;20042;-24
2023/12/28 07:13:50;;;;;;;5.72;3.25;;;;;;;14.87;54.79;97578.56;5037829;28;20039;-24
2023/12/28 07:29:43;;;;;;;7.90;4.57;;;;;;;15.01;54.64;97596.59;5027659;28;20118;-24
2023/12/28 07:45:38;;;;;;;2.80;2.30;;;;;;;15.04;54.47;97595.75;5041262;28;20090;-24
2023/12/28 08:15:35;;;;;;;4.38;2.80;;;;;;;14.95;55.01;97614.69;5033866;28;20114;-24
2023/12/28 08:31:27;;;;;;;6.03;3.05;;;;;;;14.93;54.68;97636.22;5030517;28;20049;-24
2023/12/28 08:44:51;;;;;;;5.03;3.20;;;;;;;15.09;54.52;97652.59;5037720;28;20111;-24
2023/12/28 09:00:45;;;;;;;6.70;3.03;;;;;;;15.09;54.28;97660.78;5037665;28;20099;-24
2023/12/28 09:16:39;;;;;;;4.95;2.65;;;;;;;15.07;54.48;97685.06;5039799;28;20036;-24
2023/12/28 09:46:48;;;;;;;4.30;2.90;;;;;;;14.90;54.26;97669.81;5036121;28;20109;-24
2023/12/28 10:02:44;;;;;;;4.40;2.67;;;;;;;14.89;54.56;97658.13;5035846;28;20079;-24
2023/12/28 10:15:55;;;;;;;6.55;3.22;;;;;;;14.80;54.62;97663.41;5036052;28;20069;-24
2023/12/28 11:04:42;;;;;;;6.93;4.13;;;;;;;14.95;54.23;97588.16;4995462;28;20053;-24
2023/12/28 11:18:05;;;;;;;10.93;6.82;;;;;;;14.88;54.83;97574.66;4995616;28;20041;-24
2023/12/28 11:33:57;;;;;;;15.65;8.50;;;;;;;15.08;54.04;97553.47;5010328;28;20514;-24
2023/12/28 11:49:51;;;;;;;11.48;7.07;;;;;;;14.96;53.69;97553.41;5033575;28;20037;-24
2023/12/28 12:05:45;;;;;;;9.45;6.43;;;;;;;15.00;53.66;97533.00;5039208;28;20036;-24
2023/12/28 12:08:13;;;;;;;10.13;6.40;;;;;;;14.89;54.02;97529.75;5037641;28;20014;-24
2023/12/28 12:20:45;;;;;;;11.30;7.18;;;;;;;15.17;53.04;97513.84;5038299;28;20417;-24
2023/12/28 12:33:54;;;;;;;21.40;14.50;;;;;;;14.83;54.01;97509.63;5045336;28;20040;-24
2023/12/28 12:50:39;;;;;;;15.75;9.77;;;;;;;15.10;53.49;97503.84;5037664;28;20505;-24
2023/12/28 13:19:58;;;;;;;14.52;8.90;;;;;;;15.05;53.78;97496.19;5036494;28;20032;-24
2023/12/28 13:36:28;;;;;;;17.75;11.60;;;;;;;15.10;53.38;97476.53;5036438;28;20096;-24
2023/12/28 13:49:48;;;;;;;14.70;8.65;;;;;;;15.08;53.54;97473.50;5035979;28;20032;-24
2023/12/28 14:05:42;;;;;;;15.20;8.23;;;;;;;14.99;53.68;97476.81;5036582;28;20072;-24
2023/12/28 14:21:36;;;;;;;12.43;8.00;;;;;;;15.12;53.32;97484.31;5035076;28;20023;-24
2023/12/28 14:52:19;;;;;;;22.15;12.60;;;;;;;14.90;54.32;97481.38;5034561;28;20109;-24
2023/12/28 14:54:45;;;;;;;19.58;12.43;;;;;;;15.08;53.65;97476.97;5036846;28;20021;-24
2023/12/28 15:07:16;;;;;;;20.08;12.63;;;;;;;15.10;53.44;97485.50;5035167;28;20382;-24
2023/12/28 15:36:36;;;;;;;26.77;15.60;;;;;;;15.07;53.39;97463.75;5026208;28;20131;-24
2023/12/28 15:52:29;;;;;;;47.65;28.65;;;;;;;15.04;53.70;97468.09;5038503;28;20032;-24
2023/12/28 16:08:21;;;;;;;26.70;18.05;;;;;;;15.10;53.10;97460.13;5037279;28;20048;-24
2023/12/28 16:21:32;;;;;;;26.90;16.00;;;;;;;14.99;53.28;97460.44;5039054;28;20079;-24
2023/12/28 16:37:25;;;;;;;36.53;23.58;;;;;;;14.96;53.71;97461.28;5034905;28;20064;-24
2023/12/28 16:53:17;;;;;;;28.25;18.25;;;;;;;15.11;53.21;97467.16;5035937;28;20398;-24
2023/12/28 17:09:09;;;;;;;40.83;22.83;;;;;;;15.18;53.22;97475.16;5036254;28;20134;-24
2023/12/28 17:22:16;;;;;;;37.83;24.20;;;;;;;14.97;53.69;97476.47;5037022;28;20036;-24
2023/12/28 17:38:09;;;;;;;32.83;21.08;;;;;;;15.04;53.40;97483.72;5029885;28;20103;-24
2023/12/28 17:54:02;;;;;;;28.75;15.65;;;;;;;14.87;53.98;97479.47;5035817;28;20367;-24
2023/12/28 18:09:55;;;;;;;58.42;31.58;;;;;;;15.04;54.00;97479.03;5035851;28;20032;-24
2023/12/28 18:22:56;;;;;;;39.03;26.30;;;;;;;15.07;54.06;97485.63;5036057;28;20036;-24
2023/12/28 18:38:48;;;;;;;32.42;20.13;;;;;;;15.08;54.07;97478.97;5029269;28;20103;-24
2023/12/28 18:54:41;;;;;;;38.30;22.20;;;;;;;15.27;53.48;97480.78;5035291;28;20039;-24
2023/12/28 19:24:01;;;;;;;27.50;18.55;;;;;;;15.09;53.88;97480.47;5034734;28;20085;-24
2023/12/28 19:39:54;;;;;;;42.67;25.40;;;;;;;15.04;54.26;97470.84;5031884;28;20100;-24
2023/12/28 20:09:59;;;;;;;25.70;16.17;;;;;;;14.98;54.44;97461.63;5034574;28;20618;-24
2023/12/28 20:25:51;;;;;;;55.70;26.50;;;;;;;15.06;54.27;97443.09;5036168;28;20040;-24
2023/12/28 20:56:00;;;;;;;34.00;17.75;;;;;;;14.80;54.98;97438.72;5044250;28;20092;-24
2023/12/28 21:25:20;;;;;;;29.33;15.45;;;;;;;15.15;54.02;97435.03;5043492;28;20060;-24
2023/12/28 21:41:15;;;;;;;14.40;7.93;;;;;;;15.20;53.33;97429.06;5029584;28;20047;-24
2023/12/28 21:57:07;;;;;;;11.55;6.30;;;;;;;15.12;53.75;97446.81;5035217;28;20102;-24
2023/12/28 22:10:25;;;;;;;10.82;6.55;;;;;;;15.19;54.26;97449.38;5036074;28;20119;-24
2023/12/28 22:26:18;;;;;;;8.90;5.22;;;;;;;15.16;54.72;97433.06;5042462;28;20036;-24
2023/12/28 22:42:11;;;;;;;12.48;6.47;;;;;;;15.01;54.92;97424.50;5027522;28;20064;-24
2023/12/28 23:11:57;;;;;;;8.00;4.20;;;;;;;15.07;55.01;97395.47;5035412;28;20208;-24
2023/12/28 23:27:49;;;;;;;10.25;5.60;;;;;;;15.13;54.51;97371.84;5034103;28;20088;-24
2023/12/28 23:58:32;;;;;;;8.75;4.82;;;;;;;15.09;54.83;97362.97;5034540;28;20088;-24
